sensor_id;sensor_type;location;lat;lon;timestamp;pressure;altitude;pressure_sealevel;temperature;humidity
63019;BME280;49105;46.046;10.760;2023-07-31T00:01:19;95557.09;;;19.52;79.82
63019;BME280;49105;46.046;10.760;2023-07-31T00:03:45;95555.41;;;19.48;79.67
63019;BME280;49105;46.046;10.760;2023-07-31T00:06:11;95553.13;;;19.38;79.89
63019;BME280;49105;46.046;10.760;2023-07-31T00:08:36;95557.16;;;19.31;80.32
63019;BME280;49105;46.046;10.760;2023-07-31T00:11:13;95546.63;;;19.26;80.33
63019;BME280;49105;46.046;10.760;2023-07-31T00:13:39;95554.00;;;19.29;80.23
63019;BME280;49105;46.046;10.760;2023-07-31T00:16:04;95547.19;;;19.32;80.13
63019;BME280;49105;46.046;10.760;2023-07-31T00:18:35;95557.41;;;19.39;80.13
63019;BME280;49105;46.046;10.760;2023-07-31T00:21:13;95556.72;;;19.42;80.02
63019;BME280;49105;46.046;10.760;2023-07-31T00:23:38;95571.59;;;19.39;79.95
63019;BME280;49105;46.046;10.760;2023-07-31T00:26:03;95563.63;;;19.30;80.07
63019;BME280;49105;46.046;10.760;2023-07-31T00:28:31;95557.34;;;19.26;80.28
63019;BME280;49105;46.046;10.760;2023-07-31T00:30:57;95565.41;;;19.26;80.30
63019;BME280;49105;46.046;10.760;2023-07-31T00:33:22;95569.53;;;19.24;80.50
63019;BME280;49105;46.046;10.760;2023-07-31T00:35:48;95562.72;;;19.26;80.54
63019;BME280;49105;46.046;10.760;2023-07-31T00:38:16;95559.34;;;19.29;80.31
63019;BME280;49105;46.046;10.760;2023-07-31T00:40:42;95560.28;;;19.33;80.23
63019;BME280;49105;46.046;10.760;2023-07-31T00:43:13;95560.88;;;19.39;80.32
63019;BME280;49105;46.046;10.760;2023-07-31T00:45:38;95560.66;;;19.44;80.21
63019;BME280;49105;46.046;10.760;2023-07-31T00:48:10;95563.81;;;19.25;80.05
63019;BME280;49105;46.046;10.760;2023-07-31T00:50:39;95573.91;;;19.07;80.30
63019;BME280;49105;46.046;10.760;2023-07-31T00:53:05;95571.44;;;19.02;80.60
63019;BME280;49105;46.046;10.760;2023-07-31T00:55:43;95574.31;;;18.97;80.71
63019;BME280;49105;46.046;10.760;2023-07-31T00:58:08;95584.38;;;19.00;80.78
63019;BME280;49105;46.046;10.760;2023-07-31T01:00:34;95585.44;;;19.08;80.80
63019;BME280;49105;46.046;10.760;2023-07-31T01:02:59;95580.97;;;19.12;80.77
63019;BME280;49105;46.046;10.760;2023-07-31T01:05:46;95587.47;;;19.11;80.72
63019;BME280;49105;46.046;10.760;2023-07-31T01:08:24;95584.38;;;19.00;80.98
63019;BME280;49105;46.046;10.760;2023-07-31T01:13:55;95585.16;;;19.01;80.88
63019;BME280;49105;46.046;10.760;2023-07-31T01:16:20;95584.91;;;18.94;80.96
63019;BME280;49105;46.046;10.760;2023-07-31T01:18:58;95584.78;;;18.90;81.09
63019;BME280;49105;46.046;10.760;2023-07-31T01:27:06;95568.41;;;19.04;80.85
63019;BME280;49105;46.046;10.760;2023-07-31T01:29:37;95566.38;;;19.01;80.83
63019;BME280;49105;46.046;10.760;2023-07-31T01:32:03;95560.25;;;19.00;81.05
63019;BME280;49105;46.046;10.760;2023-07-31T01:34:30;95560.72;;;19.02;80.94
63019;BME280;49105;46.046;10.760;2023-07-31T01:36:56;95555.22;;;18.99;80.91
63019;BME280;49105;46.046;10.760;2023-07-31T01:39:24;95556.78;;;19.00;80.72
63019;BME280;49105;46.046;10.760;2023-07-31T01:41:58;95556.34;;;18.98;80.71
63019;BME280;49105;46.046;10.760;2023-07-31T01:44:23;95560.25;;;18.79;80.35
63019;BME280;49105;46.046;10.760;2023-07-31T01:46:58;95563.94;;;18.66;81.04
63019;BME280;49105;46.046;10.760;2023-07-31T01:49:25;95562.50;;;18.69;81.00
63019;BME280;49105;46.046;10.760;2023-07-31T01:51:59;95562.91;;;18.79;80.99
63019;BME280;49105;46.046;10.760;2023-07-31T01:54:25;95554.56;;;18.81;80.91
63019;BME280;49105;46.046;10.760;2023-07-31T01:56:50;95555.34;;;18.81;80.82
63019;BME280;49105;46.046;10.760;2023-07-31T01:59:15;95568.13;;;18.84;81.15
63019;BME280;49105;46.046;10.760;2023-07-31T02:01:41;95559.88;;;18.90;81.04
63019;BME280;49105;46.046;10.760;2023-07-31T02:04:12;95561.09;;;18.92;80.75
63019;BME280;49105;46.046;10.760;2023-07-31T02:06:47;95563.78;;;18.92;80.70
63019;BME280;49105;46.046;10.760;2023-07-31T02:09:12;95563.34;;;18.90;80.85
63019;BME280;49105;46.046;10.760;2023-07-31T02:11:44;95557.84;;;18.87;80.85
63019;BME280;49105;46.046;10.760;2023-07-31T02:14:21;95561.16;;;18.83;80.97
63019;BME280;49105;46.046;10.760;2023-07-31T02:16:46;95561.63;;;18.86;81.01
63019;BME280;49105;46.046;10.760;2023-07-31T02:19:12;95561.63;;;18.86;80.95
63019;BME280;49105;46.046;10.760;2023-07-31T02:21:43;95555.50;;;18.85;80.85
63019;BME280;49105;46.046;10.760;2023-07-31T02:24:15;95558.34;;;18.80;81.12
63019;BME280;49105;46.046;10.760;2023-07-31T02:26:43;95556.00;;;18.78;81.23
63019;BME280;49105;46.046;10.760;2023-07-31T02:29:11;95561.22;;;18.75;81.34
63019;BME280;49105;46.046;10.760;2023-07-31T02:31:46;95557.13;;;18.77;81.29
63019;BME280;49105;46.046;10.760;2023-07-31T02:34:20;95556.78;;;18.79;81.15
63019;BME280;49105;46.046;10.760;2023-07-31T02:36:51;95546.53;;;18.81;81.01
63019;BME280;49105;46.046;10.760;2023-07-31T02:39:17;95543.72;;;18.77;81.18
63019;BME280;49105;46.046;10.760;2023-07-31T02:41:42;95536.47;;;18.69;81.09
63019;BME280;49105;46.046;10.760;2023-07-31T02:44:17;95550.25;;;18.59;81.10
63019;BME280;49105;46.046;10.760;2023-07-31T02:46:42;95549.19;;;18.51;81.37
63019;BME280;49105;46.046;10.760;2023-07-31T02:49:20;95541.69;;;18.45;81.67
63019;BME280;49105;46.046;10.760;2023-07-31T02:51:45;95545.34;;;18.40;81.69
63019;BME280;49105;46.046;10.760;2023-07-31T02:54:10;95542.31;;;18.42;81.69
63019;BME280;49105;46.046;10.760;2023-07-31T02:56:35;95550.50;;;18.45;81.60
63019;BME280;49105;46.046;10.760;2023-07-31T02:59:01;95555.53;;;18.47;81.61
63019;BME280;49105;46.046;10.760;2023-07-31T03:01:26;95552.06;;;18.46;81.82
63019;BME280;49105;46.046;10.760;2023-07-31T03:03:51;95556.97;;;18.44;81.53
63019;BME280;49105;46.046;10.760;2023-07-31T03:06:17;95556.50;;;18.42;81.81
63019;BME280;49105;46.046;10.760;2023-07-31T03:08:51;95557.03;;;18.35;81.91
63019;BME280;49105;46.046;10.760;2023-07-31T03:11:25;95554.22;;;18.32;82.32
63019;BME280;49105;46.046;10.760;2023-07-31T03:14:00;95559.19;;;18.13;81.76
63019;BME280;49105;46.046;10.760;2023-07-31T03:16:37;95566.16;;;18.05;82.28
63019;BME280;49105;46.046;10.760;2023-07-31T03:19:02;95561.72;;;18.09;82.47
63019;BME280;49105;46.046;10.760;2023-07-31T03:21:37;95567.38;;;18.16;82.51
63019;BME280;49105;46.046;10.760;2023-07-31T03:24:11;95573.78;;;18.24;82.36
63019;BME280;49105;46.046;10.760;2023-07-31T03:26:40;95575.50;;;18.28;82.02
63019;BME280;49105;46.046;10.760;2023-07-31T03:29:09;95564.97;;;18.23;82.18
63019;BME280;49105;46.046;10.760;2023-07-31T03:31:40;95571.75;;;18.21;82.10
63019;BME280;49105;46.046;10.760;2023-07-31T03:34:06;95564.50;;;18.21;82.10
63019;BME280;49105;46.046;10.760;2023-07-31T03:36:31;95569.38;;;18.28;82.29
63019;BME280;49105;46.046;10.760;2023-07-31T03:38:59;95572.03;;;18.28;82.00
63019;BME280;49105;46.046;10.760;2023-07-31T03:41:25;95573.47;;;18.25;82.11
63019;BME280;49105;46.046;10.760;2023-07-31T03:44:00;95579.78;;;18.21;81.94
63019;BME280;49105;46.046;10.760;2023-07-31T03:46:25;95576.34;;;18.20;82.30
63019;BME280;49105;46.046;10.760;2023-07-31T03:48:51;95575.84;;;18.18;82.27
63019;BME280;49105;46.046;10.760;2023-07-31T03:51:25;95578.09;;;18.16;82.01
63019;BME280;49105;46.046;10.760;2023-07-31T03:53:50;95572.88;;;18.20;82.20
63019;BME280;49105;46.046;10.760;2023-07-31T03:56:19;95578.38;;;18.23;82.29
63019;BME280;49105;46.046;10.760;2023-07-31T03:58:44;95569.06;;;18.21;82.08
63019;BME280;49105;46.046;10.760;2023-07-31T04:01:09;95573.84;;;18.15;81.80
63019;BME280;49105;46.046;10.760;2023-07-31T04:03:35;95570.56;;;18.01;82.12
63019;BME280;49105;46.046;10.760;2023-07-31T04:06:00;95570.44;;;17.97;82.34
63019;BME280;49105;46.046;10.760;2023-07-31T04:08:25;95578.94;;;17.99;82.27
63019;BME280;49105;46.046;10.760;2023-07-31T04:10:51;95572.03;;;17.98;82.14
63019;BME280;49105;46.046;10.760;2023-07-31T04:13:25;95575.00;;;17.97;82.29
63019;BME280;49105;46.046;10.760;2023-07-31T04:15:55;95581.47;;;17.96;82.39
63019;BME280;49105;46.046;10.760;2023-07-31T04:18:20;95581.00;;;17.94;82.50
63019;BME280;49105;46.046;10.760;2023-07-31T04:20:58;95592.63;;;17.98;82.46
63019;BME280;49105;46.046;10.760;2023-07-31T04:23:31;95581.28;;;18.01;82.38
63019;BME280;49105;46.046;10.760;2023-07-31T04:26:02;95575.16;;;18.00;82.52
63019;BME280;49105;46.046;10.760;2023-07-31T04:28:27;95581.47;;;17.96;82.50
63019;BME280;49105;46.046;10.760;2023-07-31T04:30:59;95572.50;;;17.92;82.59
63019;BME280;49105;46.046;10.760;2023-07-31T04:33:27;95579.56;;;17.96;82.58
63019;BME280;49105;46.046;10.760;2023-07-31T04:35:53;95569.16;;;18.03;82.39
63019;BME280;49105;46.046;10.760;2023-07-31T04:38:19;95574.00;;;18.10;82.50
63019;BME280;49105;46.046;10.760;2023-07-31T04:40:56;95574.28;;;18.17;82.15
63019;BME280;49105;46.046;10.760;2023-07-31T04:43:22;95567.81;;;18.18;82.37
63019;BME280;49105;46.046;10.760;2023-07-31T04:45:50;95568.94;;;18.17;81.94
63019;BME280;49105;46.046;10.760;2023-07-31T04:48:24;95575.59;;;18.11;82.16
63019;BME280;49105;46.046;10.760;2023-07-31T04:50:53;95572.94;;;18.02;82.22
63019;BME280;49105;46.046;10.760;2023-07-31T04:53:25;95568.22;;;17.99;82.14
63019;BME280;49105;46.046;10.760;2023-07-31T04:55:59;95572.03;;;17.98;82.34
63019;BME280;49105;46.046;10.760;2023-07-31T04:58:34;95565.38;;;18.04;82.25
63019;BME280;49105;46.046;10.760;2023-07-31T05:01:08;95563.56;;;18.17;82.10
63019;BME280;49105;46.046;10.760;2023-07-31T05:03:43;95567.66;;;18.23;81.96
63019;BME280;49105;46.046;10.760;2023-07-31T05:06:08;95559.25;;;18.33;82.07
63019;BME280;49105;46.046;10.760;2023-07-31T05:08:36;95564.53;;;18.42;82.06
63019;BME280;49105;46.046;10.760;2023-07-31T05:11:03;95569.03;;;18.59;81.98
63019;BME280;49105;46.046;10.760;2023-07-31T05:13:37;95580.63;;;18.72;81.78
63019;BME280;49105;46.046;10.760;2023-07-31T05:16:03;95570.97;;;18.79;81.43
63019;BME280;49105;46.046;10.760;2023-07-31T05:18:28;95574.91;;;18.82;81.24
63019;BME280;49105;46.046;10.760;2023-07-31T05:20:53;95568.91;;;18.85;81.15
63019;BME280;49105;46.046;10.760;2023-07-31T05:23:31;95580.34;;;18.94;81.18
63019;BME280;49105;46.046;10.760;2023-07-31T05:26:04;95576.03;;;19.02;80.80
63019;BME280;49105;46.046;10.760;2023-07-31T05:28:42;95587.47;;;19.11;80.69
63019;BME280;49105;46.046;10.760;2023-07-31T05:31:14;95586.41;;;19.24;80.61
63019;BME280;49105;46.046;10.760;2023-07-31T05:33:48;95577.41;;;19.41;80.73
63019;BME280;49105;46.046;10.760;2023-07-31T05:36:24;95581.59;;;19.51;80.21
63019;BME280;49105;46.046;10.760;2023-07-31T05:38:55;95582.03;;;19.53;79.75
63019;BME280;49105;46.046;10.760;2023-07-31T05:41:30;95586.56;;;19.61;79.75
63019;BME280;49105;46.046;10.760;2023-07-31T05:44:05;95593.75;;;19.69;79.52
63019;BME280;49105;46.046;10.760;2023-07-31T05:46:42;95591.44;;;19.80;79.50
63019;BME280;49105;46.046;10.760;2023-07-31T05:49:10;95589.19;;;19.82;79.21
63019;BME280;49105;46.046;10.760;2023-07-31T05:51:45;95588.53;;;19.85;79.13
63019;BME280;49105;46.046;10.760;2023-07-31T05:54:19;95587.88;;;19.88;78.65
63019;BME280;49105;46.046;10.760;2023-07-31T05:56:50;95587.97;;;19.79;78.37
63019;BME280;49105;46.046;10.760;2023-07-31T05:59:16;95587.06;;;19.75;78.48
63019;BME280;49105;46.046;10.760;2023-07-31T06:01:53;95587.50;;;19.77;78.63
63019;BME280;49105;46.046;10.760;2023-07-31T06:04:25;95584.16;;;19.80;78.38
63019;BME280;49105;46.046;10.760;2023-07-31T06:06:57;95577.69;;;19.81;78.16
63019;BME280;49105;46.046;10.760;2023-07-31T06:09:28;95583.72;;;19.91;78.36
63019;BME280;49105;46.046;10.760;2023-07-31T06:11:57;95574.47;;;20.00;78.13
63019;BME280;49105;46.046;10.760;2023-07-31T06:14:22;95574.59;;;20.16;77.94
63019;BME280;49105;46.046;10.760;2023-07-31T06:16:47;95577.28;;;20.28;77.68
63019;BME280;49105;46.046;10.760;2023-07-31T06:19:13;95580.41;;;20.30;77.65
63019;BME280;49105;46.046;10.760;2023-07-31T06:21:38;95583.88;;;20.31;77.65
63019;BME280;49105;46.046;10.760;2023-07-31T06:24:05;95583.78;;;20.40;77.48
63019;BME280;49105;46.046;10.760;2023-07-31T06:26:33;95591.59;;;20.45;77.22
63019;BME280;49105;46.046;10.760;2023-07-31T06:29:10;95574.19;;;20.51;77.36
63019;BME280;49105;46.046;10.760;2023-07-31T06:31:36;95582.78;;;20.56;77.06
63019;BME280;49105;46.046;10.760;2023-07-31T06:34:13;95587.72;;;20.54;76.95
63019;BME280;49105;46.046;10.760;2023-07-31T06:36:38;95585.47;;;20.56;77.09
63019;BME280;49105;46.046;10.760;2023-07-31T06:39:04;95593.88;;;20.67;76.98
63019;BME280;49105;46.046;10.760;2023-07-31T06:41:29;95584.91;;;20.75;76.63
63019;BME280;49105;46.046;10.760;2023-07-31T06:44:01;95594.75;;;20.84;76.33
63019;BME280;49105;46.046;10.760;2023-07-31T06:46:27;95594.75;;;20.84;76.11
63019;BME280;49105;46.046;10.760;2023-07-31T06:48:55;95596.06;;;20.90;76.05
63019;BME280;49105;46.046;10.760;2023-07-31T06:51:21;95591.59;;;20.94;75.80
63019;BME280;49105;46.046;10.760;2023-07-31T06:53:52;95596.28;;;20.97;75.55
63019;BME280;49105;46.046;10.760;2023-07-31T06:59:20;95595.00;;;21.19;75.68
63019;BME280;49105;46.046;10.760;2023-07-31T07:01:49;95599.28;;;21.32;75.45
63019;BME280;49105;46.046;10.760;2023-07-31T07:04:14;95595.19;;;21.38;75.00
63019;BME280;49105;46.046;10.760;2023-07-31T07:06:40;95597.56;;;21.40;74.72
63019;BME280;49105;46.046;10.760;2023-07-31T07:09:15;95591.38;;;21.39;74.70
63019;BME280;49105;46.046;10.760;2023-07-31T07:11:49;95592.97;;;21.40;74.56
63019;BME280;49105;46.046;10.760;2023-07-31T07:14:21;95591.94;;;21.45;74.27
63019;BME280;49105;46.046;10.760;2023-07-31T07:16:56;95591.16;;;21.44;73.55
63019;BME280;49105;46.046;10.760;2023-07-31T07:19:21;95590.13;;;21.49;73.84
63019;BME280;49105;46.046;10.760;2023-07-31T07:21:46;95577.19;;;21.54;73.69
63019;BME280;49105;46.046;10.760;2023-07-31T07:24:20;95574.84;;;21.53;73.40
63019;BME280;49105;46.046;10.760;2023-07-31T07:26:46;95570.13;;;21.50;73.40
63019;BME280;49105;46.046;10.760;2023-07-31T07:29:11;95570.59;;;21.52;73.63
63019;BME280;49105;46.046;10.760;2023-07-31T07:31:42;95560.66;;;21.56;73.73
63019;BME280;49105;46.046;10.760;2023-07-31T07:34:17;95562.66;;;21.59;73.76
63019;BME280;49105;46.046;10.760;2023-07-31T07:36:42;95563.03;;;21.58;73.78
63019;BME280;49105;46.046;10.760;2023-07-31T07:39:12;95565.97;;;21.68;73.94
63019;BME280;49105;46.046;10.760;2023-07-31T07:41:37;95559.81;;;21.68;73.57
63019;BME280;49105;46.046;10.760;2023-07-31T07:44:03;95552.25;;;21.58;73.14
63019;BME280;49105;46.046;10.760;2023-07-31T07:46:37;95555.53;;;21.51;73.24
63019;BME280;49105;46.046;10.760;2023-07-31T07:49:03;95557.28;;;21.59;73.42
63019;BME280;49105;46.046;10.760;2023-07-31T07:51:29;95552.19;;;21.70;73.40
63019;BME280;49105;46.046;10.760;2023-07-31T07:54:02;95554.09;;;21.69;72.99
63019;BME280;49105;46.046;10.760;2023-07-31T07:56:27;95555.03;;;21.61;72.90
63019;BME280;49105;46.046;10.760;2023-07-31T07:58:53;95555.28;;;21.56;72.56
63019;BME280;49105;46.046;10.760;2023-07-31T08:01:19;95551.91;;;21.59;72.75
63019;BME280;49105;46.046;10.760;2023-07-31T08:03:56;95553.03;;;21.58;72.39
63019;BME280;49105;46.046;10.760;2023-07-31T08:06:28;95551.72;;;21.52;72.38
63019;BME280;49105;46.046;10.760;2023-07-31T08:08:54;95554.59;;;21.59;72.67
63019;BME280;49105;46.046;10.760;2023-07-31T08:11:26;95559.50;;;21.69;72.75
63019;BME280;49105;46.046;10.760;2023-07-31T08:13:57;95548.28;;;21.83;72.08
63019;BME280;49105;46.046;10.760;2023-07-31T08:16:23;95548.56;;;21.78;71.22
63019;BME280;49105;46.046;10.760;2023-07-31T08:18:48;95543.66;;;21.68;70.38
63019;BME280;49105;46.046;10.760;2023-07-31T08:21:25;95535.84;;;21.63;70.72
63019;BME280;49105;46.046;10.760;2023-07-31T08:24:00;95545.16;;;21.65;70.92
63019;BME280;49105;46.046;10.760;2023-07-31T08:26:31;95540.78;;;21.76;71.20
63019;BME280;49105;46.046;10.760;2023-07-31T08:29:09;95529.00;;;21.97;71.30
63019;BME280;49105;46.046;10.760;2023-07-31T08:31:44;95528.13;;;22.24;70.81
63019;BME280;49105;46.046;10.760;2023-07-31T08:37:12;95534.44;;;22.64;68.79
63019;BME280;49105;46.046;10.760;2023-07-31T08:39:38;95540.81;;;22.75;68.28
63019;BME280;49105;46.046;10.760;2023-07-31T08:42:07;95538.38;;;22.86;68.31
63019;BME280;49105;46.046;10.760;2023-07-31T08:44:32;95527.47;;;22.98;67.54
63019;BME280;49105;46.046;10.760;2023-07-31T08:46:59;95523.34;;;23.04;65.98
63019;BME280;49105;46.046;10.760;2023-07-31T08:49:24;95511.53;;;23.12;64.97
63019;BME280;49105;46.046;10.760;2023-07-31T08:51:59;95510.28;;;23.25;65.12
63019;BME280;49105;46.046;10.760;2023-07-31T08:54:29;95508.19;;;23.38;64.04
63019;BME280;49105;46.046;10.760;2023-07-31T08:57:02;95495.94;;;23.44;62.60
63019;BME280;49105;46.046;10.760;2023-07-31T08:59:31;95492.69;;;23.55;61.83
63019;BME280;49105;46.046;10.760;2023-07-31T09:02:08;95487.13;;;23.67;61.86
63019;BME280;49105;46.046;10.760;2023-07-31T09:04:42;95476.47;;;23.77;62.23
63019;BME280;49105;46.046;10.760;2023-07-31T09:07:17;95480.47;;;23.84;61.26
63019;BME280;49105;46.046;10.760;2023-07-31T09:09:48;95466.63;;;23.89;61.19
63019;BME280;49105;46.046;10.760;2023-07-31T09:12:26;95474.44;;;23.94;60.29
63019;BME280;49105;46.046;10.760;2023-07-31T09:17:42;95458.78;;;24.07;59.18
63019;BME280;49105;46.046;10.760;2023-07-31T09:20:20;95453.03;;;24.08;58.79
63019;BME280;49105;46.046;10.760;2023-07-31T09:22:52;95446.91;;;24.11;58.66
63019;BME280;49105;46.046;10.760;2023-07-31T09:25:29;95450.13;;;24.20;58.31
63019;BME280;49105;46.046;10.760;2023-07-31T09:28:07;95450.75;;;24.37;57.35
63019;BME280;49105;46.046;10.760;2023-07-31T09:30:49;95447.53;;;24.54;57.11
63019;BME280;49105;46.046;10.760;2023-07-31T09:33:24;95455.31;;;24.59;55.01
63019;BME280;49105;46.046;10.760;2023-07-31T09:35:55;95450.63;;;24.56;55.18
63019;BME280;49105;46.046;10.760;2023-07-31T09:38:29;95445.31;;;24.63;55.29
63019;BME280;49105;46.046;10.760;2023-07-31T09:41:04;95447.97;;;24.60;54.96
63019;BME280;49105;46.046;10.760;2023-07-31T09:43:42;95449.84;;;24.56;54.57
63019;BME280;49105;46.046;10.760;2023-07-31T09:46:17;95448.28;;;24.55;55.77
63019;BME280;49105;46.046;10.760;2023-07-31T09:48:45;95450.81;;;24.70;55.99
63019;BME280;49105;46.046;10.760;2023-07-31T09:51:10;95444.44;;;24.86;55.30
63019;BME280;49105;46.046;10.760;2023-07-31T09:53:42;95436.47;;;25.00;55.08
63019;BME280;49105;46.046;10.760;2023-07-31T09:56:20;95429.72;;;25.17;55.15
63019;BME280;49105;46.046;10.760;2023-07-31T09:58:46;95430.25;;;25.33;54.93
63019;BME280;49105;46.046;10.760;2023-07-31T10:01:12;95437.22;;;25.31;54.83
63019;BME280;49105;46.046;10.760;2023-07-31T10:03:38;95432.06;;;25.18;54.30
63019;BME280;49105;46.046;10.760;2023-07-31T10:06:13;95436.66;;;25.14;54.57
63019;BME280;49105;46.046;10.760;2023-07-31T10:08:47;95443.22;;;25.13;54.94
63019;BME280;49105;46.046;10.760;2023-07-31T10:11:16;95448.16;;;25.08;55.30
63019;BME280;49105;46.046;10.760;2023-07-31T10:13:42;95439.25;;;25.07;55.28
63019;BME280;49105;46.046;10.760;2023-07-31T10:16:10;95438.84;;;25.05;55.37
63019;BME280;49105;46.046;10.760;2023-07-31T10:18:40;95439.91;;;24.97;55.52
63019;BME280;49105;46.046;10.760;2023-07-31T10:21:06;95432.84;;;24.89;56.03
63019;BME280;49105;46.046;10.760;2023-07-31T10:23:32;95429.25;;;24.78;56.69
63019;BME280;49105;46.046;10.760;2023-07-31T10:26:07;95427.91;;;24.64;57.61
63019;BME280;49105;46.046;10.760;2023-07-31T10:28:32;95432.75;;;24.48;57.55
63019;BME280;49105;46.046;10.760;2023-07-31T10:30:58;95425.56;;;24.33;58.54
63019;BME280;49105;46.046;10.760;2023-07-31T10:33:24;95428.50;;;24.20;59.17
63019;BME280;49105;46.046;10.760;2023-07-31T10:35:49;95436.94;;;24.19;59.28
63019;BME280;49105;46.046;10.760;2023-07-31T10:38:18;95428.50;;;24.20;59.33
63019;BME280;49105;46.046;10.760;2023-07-31T10:40:43;95423.91;;;24.24;59.62
63019;BME280;49105;46.046;10.760;2023-07-31T10:43:25;95417.84;;;24.35;59.65
63019;BME280;49105;46.046;10.760;2023-07-31T10:45:58;95419.63;;;24.50;59.87
63019;BME280;49105;46.046;10.760;2023-07-31T10:48:35;95412.22;;;24.73;59.82
63019;BME280;49105;46.046;10.760;2023-07-31T10:51:08;95414.81;;;25.00;59.12
63019;BME280;49105;46.046;10.760;2023-07-31T10:53:46;95420.47;;;25.21;59.15
63019;BME280;49105;46.046;10.760;2023-07-31T10:56:18;95416.03;;;25.40;58.95
63019;BME280;49105;46.046;10.760;2023-07-31T10:58:47;95411.38;;;25.40;56.59
63019;BME280;49105;46.046;10.760;2023-07-31T11:01:25;95405.75;;;25.60;55.97
63019;BME280;49105;46.046;10.760;2023-07-31T11:04:21;95401.69;;;25.80;56.02
63019;BME280;49105;46.046;10.760;2023-07-31T11:07:02;95410.28;;;25.93;55.75
63019;BME280;49105;46.046;10.760;2023-07-31T11:09:31;95403.31;;;25.95;55.64
63019;BME280;49105;46.046;10.760;2023-07-31T11:12:03;95416.03;;;25.88;55.64
63019;BME280;49105;46.046;10.760;2023-07-31T11:14:29;95419.53;;;25.85;55.97
63019;BME280;49105;46.046;10.760;2023-07-31T11:16:54;95410.59;;;25.81;56.12
63019;BME280;49105;46.046;10.760;2023-07-31T11:19:31;95410.84;;;25.68;55.64
63019;BME280;49105;46.046;10.760;2023-07-31T11:21:57;95417.31;;;25.57;55.52
63019;BME280;49105;46.046;10.760;2023-07-31T11:24:22;95418.03;;;25.50;55.68
63019;BME280;49105;46.046;10.760;2023-07-31T11:26:57;95410.78;;;25.61;55.93
63019;BME280;49105;46.046;10.760;2023-07-31T11:29:22;95403.22;;;25.81;55.54
63019;BME280;49105;46.046;10.760;2023-07-31T11:31:52;95391.75;;;26.02;55.58
63019;BME280;49105;46.046;10.760;2023-07-31T11:34:20;95394.53;;;26.16;54.38
63019;BME280;49105;46.046;10.760;2023-07-31T11:36:55;95395.41;;;26.31;54.36
63019;BME280;49105;46.046;10.760;2023-07-31T11:39:32;95396.56;;;26.37;54.70
63019;BME280;49105;46.046;10.760;2023-07-31T11:41:59;95393.19;;;26.47;54.88
63019;BME280;49105;46.046;10.760;2023-07-31T11:44:25;95382.00;;;26.63;54.96
63019;BME280;49105;46.046;10.760;2023-07-31T11:46:56;95375.09;;;26.87;55.05
63019;BME280;49105;46.046;10.760;2023-07-31T11:49:22;95378.66;;;27.09;53.47
63019;BME280;49105;46.046;10.760;2023-07-31T11:51:53;95370.94;;;27.26;52.87
63019;BME280;49105;46.046;10.760;2023-07-31T11:54:31;95358.50;;;27.35;50.13
63019;BME280;49105;46.046;10.760;2023-07-31T11:57:03;95362.00;;;27.36;49.17
63019;BME280;49105;46.046;10.760;2023-07-31T11:59:29;95355.44;;;27.40;49.68
63019;BME280;49105;46.046;10.760;2023-07-31T12:02:03;95354.66;;;27.54;50.51
63019;BME280;49105;46.046;10.760;2023-07-31T12:04:38;95346.47;;;27.72;50.53
63019;BME280;49105;46.046;10.760;2023-07-31T12:07:03;95348.41;;;27.71;49.53
63019;BME280;49105;46.046;10.760;2023-07-31T12:09:29;95340.28;;;27.75;49.51
63019;BME280;49105;46.046;10.760;2023-07-31T12:11:54;95340.25;;;27.89;49.75
63019;BME280;49105;46.046;10.760;2023-07-31T12:14:28;95346.09;;;27.84;48.79
63019;BME280;49105;46.046;10.760;2023-07-31T12:16:54;95349.97;;;27.58;48.79
63019;BME280;49105;46.046;10.760;2023-07-31T12:19:20;95346.47;;;27.40;48.45
63019;BME280;49105;46.046;10.760;2023-07-31T12:21:46;95353.06;;;27.32;49.27
63019;BME280;49105;46.046;10.760;2023-07-31T12:24:11;95341.06;;;27.29;48.90
63019;BME280;49105;46.046;10.760;2023-07-31T12:26:46;95339.50;;;27.25;49.61
63019;BME280;49105;46.046;10.760;2023-07-31T12:29:19;95342.22;;;27.17;49.65
63019;BME280;49105;46.046;10.760;2023-07-31T12:31:50;95332.84;;;27.04;50.34
63019;BME280;49105;46.046;10.760;2023-07-31T12:34:22;95331.66;;;26.91;50.58
63019;BME280;49105;46.046;10.760;2023-07-31T12:36:47;95328.53;;;26.71;50.65
63019;BME280;49105;46.046;10.760;2023-07-31T12:39:24;95326.56;;;26.64;51.21
63019;BME280;49105;46.046;10.760;2023-07-31T12:41:50;95323.84;;;26.79;51.56
63019;BME280;49105;46.046;10.760;2023-07-31T12:44:15;95316.94;;;26.95;51.46
63019;BME280;49105;46.046;10.760;2023-07-31T12:46:48;95319.22;;;26.90;51.63
63019;BME280;49105;46.046;10.760;2023-07-31T12:49:13;95315.34;;;26.84;50.37
63019;BME280;49105;46.046;10.760;2023-07-31T12:51:38;95306.81;;;26.82;50.29
63019;BME280;49105;46.046;10.760;2023-07-31T12:54:04;95313.81;;;26.90;50.49
63019;BME280;49105;46.046;10.760;2023-07-31T12:56:29;95304.50;;;26.80;50.26
63019;BME280;49105;46.046;10.760;2023-07-31T12:58:55;95292.44;;;26.63;51.13
63019;BME280;49105;46.046;10.760;2023-07-31T13:01:20;95290.88;;;26.66;51.59
63019;BME280;49105;46.046;10.760;2023-07-31T13:03:51;95283.56;;;26.84;51.04
63019;BME280;49105;46.046;10.760;2023-07-31T13:06:26;95279.66;;;27.03;50.78
63019;BME280;49105;46.046;10.760;2023-07-31T13:09:01;95277.38;;;27.19;50.53
63019;BME280;49105;46.046;10.760;2023-07-31T13:11:33;95277.38;;;27.23;48.60
63019;BME280;49105;46.046;10.760;2023-07-31T13:14:04;95271.94;;;27.19;49.11
63019;BME280;49105;46.046;10.760;2023-07-31T13:16:39;95278.16;;;27.34;50.24
63019;BME280;49105;46.046;10.760;2023-07-31T13:19:05;95269.97;;;27.49;49.86
63019;BME280;49105;46.046;10.760;2023-07-31T13:21:39;95267.25;;;27.70;48.86